Time;durP1;ratioP1;P1;durP2;ratioP2;P2;SDS_P1;SDS_P2;PMS_P1;PMS_P2;Temp;Humidity;BMP_temperature;BMP_pressure;BME280_temperature;BME280_humidity;BME280_pressure;Samples;Min_cycle;Max_cycle;Signal;HPM_P1;HPM_P2
2024/02/20 00:01:19;;;;;;;;;;;;;;;;;;5071123;28;20365;-77
2024/02/20 00:03:45;;;;;;;;;;;;;;;;;;5071695;28;19919;-77
2024/02/20 00:06:10;;;;;;;;;;;;;;;;;;5069091;28;19919;-78
2024/02/20 00:08:35;;;;;;;;;;;;;;;;;;5072694;28;19932;-78
2024/02/20 00:11:01;;;;;;;;;;;;;;;;;;5069352;28;19912;-77
2024/02/20 00:13:26;;;;;;;;;;;;;;;;;;5071080;28;20380;-77
2024/02/20 00:15:52;;;;;;;;;;;;;;;;;;5069398;28;19917;-77
2024/02/20 00:18:17;;;;;;;;;;;;;;;;;;5071026;28;20388;-78
2024/02/20 00:20:44;;;;;;;;;;;;;;;;;;5072564;28;19916;-78
2024/02/20 00:23:10;;;;;;;;;;;;;;;;;;5070681;28;20288;-77
2024/02/20 00:25:35;;;;;;;;;;;;;;;;;;5070558;28;19919;-78
2024/02/20 00:28:01;;;;;;;;;;;;;;;;;;5070590;28;20335;-78
2024/02/20 00:30:26;;;;;;;;;;;;;;;;;;5071636;28;19916;-78
2024/02/20 00:32:51;;;;;;;;;;;;;;;;;;5070159;28;19913;-77
2024/02/20 00:35:16;;;;;;;;;;;;;;;;;;5071434;28;19924;-77
2024/02/20 00:37:42;;;;;;;;;;;;;;;;;;5068980;28;19962;-78
2024/02/20 00:40:07;;;;;;;;;;;;;;;;;;5069596;28;19923;-78
2024/02/20 00:42:32;;;;;;;;;;;;;;;;;;5068668;28;19999;-78
2024/02/20 00:45:01;;;;;;;;;;;;;;;;;;5071741;28;19966;-78
2024/02/20 00:47:26;;;;;;;;;;;;;;;;;;5071348;28;19932;-77
2024/02/20 00:49:51;;;;;;;;;;;;;;;;;;5072046;28;19916;-77
2024/02/20 00:52:16;;;;;;;;;;;;;;;;;;5072665;28;20404;-78
2024/02/20 00:54:41;;;;;;;;;;;;;;;;;;5072380;28;20008;-77
2024/02/20 00:57:08;;;;;;;;;;;;;;;;;;5070773;28;19978;-77
2024/02/20 00:59:33;;;;;;;;;;;;;;;;;;5070971;28;19920;-77
2024/02/20 01:01:58;;;;;;;;;;;;;;;;;;5073741;28;20437;-77
2024/02/20 01:04:24;;;;;;;;;;;;;;;;;;5071999;28;19920;-77
2024/02/20 01:06:50;;;;;;;;;;;;;;;;;;5069943;28;20082;-74
2024/02/20 01:09:15;;;;;;;;;;;;;;;;;;5077925;28;20011;-74
2024/02/20 01:11:40;;;;;;;;;;;;;;;;;;5065516;28;19912;-75
2024/02/20 01:14:05;;;;;;;;;;;;;;;;;;5071952;28;19920;-74
2024/02/20 01:16:31;;;;;;;;;;;;;;;;;;5068115;28;19958;-74
2024/02/20 01:18:57;;;;;;;;;;;;;;;;;;5067423;28;19927;-74
2024/02/20 01:21:22;;;;;;;;;;;;;;;;;;5070206;28;19919;-74
2024/02/20 01:23:47;;;;;;;;;;;;;;;;;;5068965;28;19939;-74
2024/02/20 01:26:14;;;;;;;;;;;;;;;;;;5069299;28;20018;-75
2024/02/20 01:28:39;;;;;;;;;;;;;;;;;;5069152;28;20027;-75
2024/02/20 01:31:04;;;;;;;;;;;;;;;;;;5066830;28;20088;-74
2024/02/20 01:33:29;;;;;;;;;;;;;;;;;;5073217;28;19970;-74
2024/02/20 01:35:55;;;;;;;;;;;;;;;;;;5069127;28;19913;-74
2024/02/20 01:38:21;;;;;;;;;;;;;;;;;;5068500;28;19909;-74
2024/02/20 01:40:46;;;;;;;;;;;;;;;;;;5068650;28;19920;-74
2024/02/20 01:43:14;;;;;;;;;;;;;;;;;;5069838;28;19919;-74
2024/02/20 01:45:39;;;;;;;;;;;;;;;;;;5069214;28;20322;-74
2024/02/20 01:48:04;;;;;;;;;;;;;;;;;;5069285;28;19974;-74
2024/02/20 01:50:33;;;;;;;;;;;;;;;;;;5069378;28;19912;-74
2024/02/20 01:52:58;;;;;;;;;;;;;;;;;;5068338;28;19974;-74
2024/02/20 01:55:23;;;;;;;;;;;;;;;;;;5065310;28;19928;-74
2024/02/20 01:57:48;;;;;;;;;;;;;;;;;;5067621;28;19919;-74
2024/02/20 02:00:13;;;;;;;;;;;;;;;;;;5051280;28;19959;-74
2024/02/20 02:02:39;;;;;;;;;;;;;;;;;;5068337;28;19919;-74
2024/02/20 02:05:04;;;;;;;;;;;;;;;;;;5069513;28;19959;-74
2024/02/20 02:07:29;;;;;;;;;;;;;;;;;;5068145;28;19913;-74
2024/02/20 02:09:54;;;;;;;;;;;;;;;;;;5069291;28;19993;-74
2024/02/20 02:12:19;;;;;;;;;;;;;;;;;;5073005;28;19913;-74
2024/02/20 02:14:47;;;;;;;;;;;;;;;;;;5074761;28;19916;-74
2024/02/20 02:17:12;;;;;;;;;;;;;;;;;;5069374;28;19916;-76
2024/02/20 02:19:38;;;;;;;;;;;;;;;;;;5072774;28;19912;-76
2024/02/20 02:22:04;;;;;;;;;;;;;;;;;;5068873;28;20461;-76
2024/02/20 02:24:29;;;;;;;;;;;;;;;;;;5063588;28;19950;-76
2024/02/20 02:26:54;;;;;;;;;;;;;;;;;;5064859;28;20421;-76
2024/02/20 02:29:19;;;;;;;;;;;;;;;;;;5068651;28;19925;-76
2024/02/20 02:31:45;;;;;;;;;;;;;;;;;;5069068;28;19913;-76
2024/02/20 02:34:11;;;;;;;;;;;;;;;;;;5069069;28;19918;-75
2024/02/20 02:36:36;;;;;;;;;;;;;;;;;;5069200;28;19916;-76
2024/02/20 02:39:01;;;;;;;;;;;;;;;;;;5069613;28;19924;-77
2024/02/20 02:41:28;;;;;;;;;;;;;;;;;;5042732;28;19978;-76
2024/02/20 02:43:53;;;;;;;;;;;;;;;;;;5048769;28;19916;-77
2024/02/20 02:46:18;;;;;;;;;;;;;;;;;;5048630;28;19920;-76
2024/02/20 02:48:43;;;;;;;;;;;;;;;;;;5049136;28;20483;-76
2024/02/20 02:51:09;;;;;;;;;;;;;;;;;;5052062;28;19913;-77
2024/02/20 02:53:34;;;;;;;;;;;;;;;;;;5045630;28;19963;-77
2024/02/20 02:55:59;;;;;;;;;;;;;;;;;;5048868;28;19913;-77
2024/02/20 02:58:24;;;;;;;;;;;;;;;;;;5048942;28;20739;-76
2024/02/20 03:00:49;;;;;;;;;;;;;;;;;;5052756;28;20340;-76
2024/02/20 03:03:14;;;;;;;;;;;;;;;;;;5049350;28;20328;-75
2024/02/20 03:05:39;;;;;;;;;;;;;;;;;;5049122;28;20376;-77
2024/02/20 03:08:05;;;;;;;;;;;;;;;;;;5048302;28;19919;-76
2024/02/20 03:10:30;;;;;;;;;;;;;;;;;;5048433;28;19917;-76
2024/02/20 03:12:56;;;;;;;;;;;;;;;;;;5042210;28;20999;-76
2024/02/20 03:15:21;;;;;;;;;;;;;;;;;;5052485;28;19923;-76
2024/02/20 03:17:46;;;;;;;;;;;;;;;;;;5052006;28;20006;-75
2024/02/20 03:20:14;;;;;;;;;;;;;;;;;;5051429;28;19913;-76
2024/02/20 03:22:40;;;;;;;;;;;;;;;;;;5051980;28;19913;-76
2024/02/20 03:25:06;;;;;;;;;;;;;;;;;;5051787;28;20004;-76
2024/02/20 03:27:31;;;;;;;;;;;;;;;;;;5050430;28;19912;-76
2024/02/20 03:29:56;;;;;;;;;;;;;;;;;;5055096;28;19931;-76
2024/02/20 03:32:22;;;;;;;;;;;;;;;;;;5052610;28;19963;-76
2024/02/20 03:34:47;;;;;;;;;;;;;;;;;;5051029;28;19913;-76
2024/02/20 03:37:12;;;;;;;;;;;;;;;;;;5051819;28;19919;-77
2024/02/20 03:39:38;;;;;;;;;;;;;;;;;;5053269;28;20277;-76
2024/02/20 03:42:03;;;;;;;;;;;;;;;;;;5064934;28;19931;-77
2024/02/20 03:44:29;;;;;;;;;;;;;;;;;;5071645;28;19913;-76
2024/02/20 03:46:54;;;;;;;;;;;;;;;;;;5071792;28;20353;-76
2024/02/20 03:49:19;;;;;;;;;;;;;;;;;;5071378;28;19920;-76
2024/02/20 03:51:46;;;;;;;;;;;;;;;;;;5074626;28;19974;-76
2024/02/20 03:54:11;;;;;;;;;;;;;;;;;;5066402;28;19916;-76
2024/02/20 03:56:36;;;;;;;;;;;;;;;;;;5073950;28;19924;-76
2024/02/20 03:59:01;;;;;;;;;;;;;;;;;;5074387;28;19912;-76
2024/02/20 04:01:26;;;;;;;;;;;;;;;;;;5068592;28;19921;-76
2024/02/20 04:03:51;;;;;;;;;;;;;;;;;;5056263;28;20414;-77
2024/02/20 04:06:16;;;;;;;;;;;;;;;;;;5073745;28;19961;-77
2024/02/20 04:08:42;;;;;;;;;;;;;;;;;;5071261;28;20369;-77
2024/02/20 04:11:07;;;;;;;;;;;;;;;;;;5078544;28;20017;-77
2024/02/20 04:13:32;;;;;;;;;;;;;;;;;;5070829;28;19935;-77
2024/02/20 04:15:57;;;;;;;;;;;;;;;;;;5052898;28;19944;-77
2024/02/20 04:18:22;;;;;;;;;;;;;;;;;;5071216;28;19916;-77
2024/02/20 04:20:47;;;;;;;;;;;;;;;;;;5055608;28;20000;-77
2024/02/20 04:23:13;;;;;;;;;;;;;;;;;;5070675;28;20368;-77
2024/02/20 04:25:38;;;;;;;;;;;;;;;;;;5055489;28;19917;-77
2024/02/20 04:28:03;;;;;;;;;;;;;;;;;;5073187;28;19912;-77
2024/02/20 04:30:28;;;;;;;;;;;;;;;;;;5073248;28;20312;-77
2024/02/20 04:32:53;;;;;;;;;;;;;;;;;;5067924;28;19919;-76
2024/02/20 04:35:18;;;;;;;;;;;;;;;;;;5072874;28;19955;-77
2024/02/20 04:37:44;;;;;;;;;;;;;;;;;;5072929;28;20031;-75
2024/02/20 04:40:10;;;;;;;;;;;;;;;;;;5072905;28;19913;-75
2024/02/20 04:42:35;;;;;;;;;;;;;;;;;;5072779;28;19989;-75
2024/02/20 04:45:00;;;;;;;;;;;;;;;;;;5073444;28;19916;-75
2024/02/20 04:47:27;;;;;;;;;;;;;;;;;;5070366;28;19959;-75
2024/02/20 04:49:52;;;;;;;;;;;;;;;;;;5072031;28;19927;-74
2024/02/20 04:52:18;;;;;;;;;;;;;;;;;;5069950;28;19992;-75
2024/02/20 04:54:43;;;;;;;;;;;;;;;;;;5069781;28;19916;-75
2024/02/20 04:57:10;;;;;;;;;;;;;;;;;;5070239;28;19908;-75
2024/02/20 04:59:35;;;;;;;;;;;;;;;;;;5071903;28;19912;-75
2024/02/20 05:02:02;;;;;;;;;;;;;;;;;;5070143;28;19920;-75
2024/02/20 05:04:27;;;;;;;;;;;;;;;;;;5071513;28;20449;-75
2024/02/20 05:06:52;;;;;;;;;;;;;;;;;;5070598;28;20006;-75
2024/02/20 05:09:17;;;;;;;;;;;;;;;;;;5069328;28;19917;-75
2024/02/20 05:11:42;;;;;;;;;;;;;;;;;;5068328;28;19918;-75
2024/02/20 05:14:08;;;;;;;;;;;;;;;;;;5054468;28;20049;-75
2024/02/20 05:16:33;;;;;;;;;;;;;;;;;;5072136;28;19982;-75
2024/02/20 05:18:58;;;;;;;;;;;;;;;;;;5068151;28;19916;-75
2024/02/20 05:21:23;;;;;;;;;;;;;;;;;;5067244;28;20370;-75
2024/02/20 05:23:48;;;;;;;;;;;;;;;;;;5066748;28;19912;-75
2024/02/20 05:26:13;;;;;;;;;;;;;;;;;;5072268;28;20384;-73
2024/02/20 05:28:38;;;;;;;;;;;;;;;;;;5068946;28;20280;-74
2024/02/20 05:31:03;;;;;;;;;;;;;;;;;;5067673;28;20439;-75
2024/02/20 05:33:29;;;;;;;;;;;;;;;;;;5067955;28;19932;-74
2024/02/20 05:35:54;;;;;;;;;;;;;;;;;;5067773;28;19974;-74
2024/02/20 05:38:19;;;;;;;;;;;;;;;;;;5071678;28;19912;-74
2024/02/20 05:40:44;;;;;;;;;;;;;;;;;;5069199;28;19939;-74
2024/02/20 05:43:09;;;;;;;;;;;;;;;;;;5069011;28;19916;-74
2024/02/20 05:45:34;;;;;;;;;;;;;;;;;;5069095;28;20341;-74
2024/02/20 05:48:00;;;;;;;;;;;;;;;;;;5066149;28;19917;-74
2024/02/20 05:50:26;;;;;;;;;;;;;;;;;;5069154;28;19966;-74
2024/02/20 05:52:51;;;;;;;;;;;;;;;;;;5071797;28;19956;-74
2024/02/20 05:55:16;;;;;;;;;;;;;;;;;;5068995;28;20031;-74
2024/02/20 05:57:41;;;;;;;;;;;;;;;;;;5053568;28;19912;-74
2024/02/20 06:00:08;;;;;;;;;;;;;;;;;;5068836;28;19912;-74
2024/02/20 06:02:34;;;;;;;;;;;;;;;;;;5067604;28;20008;-74
2024/02/20 06:04:59;;;;;;;;;;;;;;;;;;5053097;28;20007;-74
2024/02/20 06:07:24;;;;;;;;;;;;;;;;;;5068313;28;19942;-74
2024/02/20 06:09:50;;;;;;;;;;;;;;;;;;5071192;28;19969;-74
2024/02/20 06:12:15;;;;;;;;;;;;;;;;;;5069968;28;19947;-74
2024/02/20 06:14:40;;;;;;;;;;;;;;;;;;5066077;28;19912;-74
2024/02/20 06:17:05;;;;;;;;;;;;;;;;;;5069219;28;19932;-74
2024/02/20 06:19:32;;;;;;;;;;;;;;;;;;5071100;28;19924;-74
2024/02/20 06:21:57;;;;;;;;;;;;;;;;;;5067463;28;19917;-73
2024/02/20 06:24:22;;;;;;;;;;;;;;;;;;5068551;28;19920;-74
2024/02/20 06:26:48;;;;;;;;;;;;;;;;;;5068743;28;19959;-75
2024/02/20 06:29:13;;;;;;;;;;;;;;;;;;5071880;28;19913;-74
2024/02/20 06:31:38;;;;;;;;;;;;;;;;;;5070981;28;20591;-74
2024/02/20 06:34:04;;;;;;;;;;;;;;;;;;5069091;28;19931;-73
2024/02/20 06:36:29;;;;;;;;;;;;;;;;;;5071343;28;19995;-74
2024/02/20 06:38:54;;;;;;;;;;;;;;;;;;5071274;28;19943;-74
2024/02/20 06:41:19;;;;;;;;;;;;;;;;;;5046666;28;19932;-74
2024/02/20 06:43:44;;;;;;;;;;;;;;;;;;5048993;28;19920;-74
2024/02/20 06:46:09;;;;;;;;;;;;;;;;;;5051647;28;19978;-74
2024/02/20 06:48:36;;;;;;;;;;;;;;;;;;5051067;28;19986;-74
2024/02/20 06:51:01;;;;;;;;;;;;;;;;;;5052839;28;19921;-74
2024/02/20 06:53:26;;;;;;;;;;;;;;;;;;5051823;28;19971;-75
2024/02/20 06:55:51;;;;;;;;;;;;;;;;;;5050194;28;19913;-75
2024/02/20 06:58:16;;;;;;;;;;;;;;;;;;5052591;28;19913;-75
2024/02/20 07:00:41;;;;;;;;;;;;;;;;;;5048913;28;19920;-77
2024/02/20 07:03:07;;;;;;;;;;;;;;;;;;5054903;28;19917;-77
2024/02/20 07:05:32;;;;;;;;;;;;;;;;;;5055705;28;20250;-74
2024/02/20 07:07:57;;;;;;;;;;;;;;;;;;5049798;28;20424;-76
2024/02/20 07:10:23;;;;;;;;;;;;;;;;;;5048634;28;19931;-75
2024/02/20 07:12:48;;;;;;;;;;;;;;;;;;5050666;28;19958;-75
2024/02/20 07:15:13;;;;;;;;;;;;;;;;;;5050111;28;20369;-75
2024/02/20 07:17:38;;;;;;;;;;;;;;;;;;5050018;28;19913;-74
2024/02/20 07:20:03;;;;;;;;;;;;;;;;;;5052499;28;20005;-74
2024/02/20 07:22:29;;;;;;;;;;;;;;;;;;5049738;28;20292;-75
2024/02/20 07:24:55;;;;;;;;;;;;;;;;;;5048677;28;19913;-75
2024/02/20 07:27:20;;;;;;;;;;;;;;;;;;5061015;28;19913;-76
2024/02/20 07:29:46;;;;;;;;;;;;;;;;;;5057663;28;19999;-75
2024/02/20 07:32:11;;;;;;;;;;;;;;;;;;5057747;28;19912;-76
2024/02/20 07:34:37;;;;;;;;;;;;;;;;;;5057038;28;19913;-76
2024/02/20 07:37:02;;;;;;;;;;;;;;;;;;5054391;28;20038;-76
2024/02/20 07:39:27;;;;;;;;;;;;;;;;;;5061139;28;20366;-76
2024/02/20 07:41:52;;;;;;;;;;;;;;;;;;5064229;28;19993;-75
2024/02/20 07:44:17;;;;;;;;;;;;;;;;;;5073202;28;20007;-76
2024/02/20 07:46:43;;;;;;;;;;;;;;;;;;5071540;28;19908;-76
2024/02/20 07:49:08;;;;;;;;;;;;;;;;;;5055113;28;19921;-76
2024/02/20 07:51:33;;;;;;;;;;;;;;;;;;5074300;28;19912;-76
2024/02/20 07:54:07;;;;;;;;;;;;;;;;;;5072727;28;19956;-76
2024/02/20 07:56:33;;;;;;;;;;;;;;;;;;5073805;28;19952;-76
2024/02/20 07:58:58;;;;;;;;;;;;;;;;;;5056215;28;19951;-76
2024/02/20 08:01:24;;;;;;;;;;;;;;;;;;5073423;28;20015;-74
2024/02/20 08:06:35;;;;;;;;;;;;;;;;;;5035977;28;19913;-80
2024/02/20 08:09:01;;;;;;;;;;;;;;;;;;5072438;28;19919;-76
2024/02/20 08:11:26;;;;;;;;;;;;;;;;;;5072057;28;20015;-78
2024/02/20 08:13:51;;;;;;;;;;;;;;;;;;5070715;28;19961;-80
2024/02/20 08:16:17;;;;;;;;;;;;;;;;;;5070266;28;20288;-79
2024/02/20 08:18:51;;;;;;;;;;;;;;;;;;5071851;28;19912;-78
2024/02/20 08:21:17;;;;;;;;;;;;;;;;;;5069500;28;20107;-77
2024/02/20 08:23:48;;;;;;;;;;;;;;;;;;5071347;28;20391;-76
2024/02/20 08:26:13;;;;;;;;;;;;;;;;;;5054141;28;19912;-76
2024/02/20 08:28:39;;;;;;;;;;;;;;;;;;5050666;28;19924;-76
2024/02/20 08:31:04;;;;;;;;;;;;;;;;;;5058967;28;20345;-75
2024/02/20 08:33:30;;;;;;;;;;;;;;;;;;5070469;28;19912;-78
2024/02/20 08:35:56;;;;;;;;;;;;;;;;;;5069088;28;19939;-76
2024/02/20 08:38:21;;;;;;;;;;;;;;;;;;5071006;28;20017;-76
2024/02/20 08:41:09;;;;;;;;;;;;;;;;;;5071279;28;19915;-74
2024/02/20 08:43:32;;;;;;;;;;;;;;;;;;5068055;28;19913;-76
2024/02/20 08:45:57;;;;;;;;;;;;;;;;;;5070644;28;20253;-75
2024/02/20 08:48:23;;;;;;;;;;;;;;;;;;5071210;28;19912;-75
2024/02/20 08:50:51;;;;;;;;;;;;;;;;;;5071921;28;19955;-76
2024/02/20 08:53:16;;;;;;;;;;;;;;;;;;5070756;28;20431;-76
2024/02/20 08:55:49;;;;;;;;;;;;;;;;;;5071388;28;19920;-73
2024/02/20 08:58:14;;;;;;;;;;;;;;;;;;5073916;28;19927;-76
2024/02/20 09:00:41;;;;;;;;;;;;;;;;;;5069894;28;19912;-75
2024/02/20 09:03:06;;;;;;;;;;;;;;;;;;5071662;28;20395;-76
2024/02/20 09:05:33;;;;;;;;;;;;;;;;;;5071442;28;20015;-77
2024/02/20 09:07:58;;;;;;;;;;;;;;;;;;5072778;28;20356;-77
2024/02/20 09:10:25;;;;;;;;;;;;;;;;;;5070806;28;20014;-77
2024/02/20 09:12:50;;;;;;;;;;;;;;;;;;5052486;28;19912;-77
2024/02/20 09:15:16;;;;;;;;;;;;;;;;;;5070717;28;19924;-77
2024/02/20 09:17:41;;;;;;;;;;;;;;;;;;5070800;28;20381;-77
2024/02/20 09:20:07;;;;;;;;;;;;;;;;;;5051804;28;19956;-78
2024/02/20 09:22:33;;;;;;;;;;;;;;;;;;5069596;28;19913;-78
2024/02/20 09:24:58;;;;;;;;;;;;;;;;;;5069994;28;19913;-77
2024/02/20 09:27:24;;;;;;;;;;;;;;;;;;5070149;28;19912;-75
2024/02/20 09:29:49;;;;;;;;;;;;;;;;;;5070798;28;19952;-75
2024/02/20 09:32:14;;;;;;;;;;;;;;;;;;5070402;28;19912;-75
2024/02/20 09:34:40;;;;;;;;;;;;;;;;;;5070395;28;20543;-74
2024/02/20 09:37:05;;;;;;;;;;;;;;;;;;5071847;28;19913;-74
2024/02/20 09:39:49;;;;;;;;;;;;;;;;;;5054453;28;20011;-74
2024/02/20 09:42:15;;;;;;;;;;;;;;;;;;5064782;28;20410;-77
2024/02/20 09:44:41;;;;;;;;;;;;;;;;;;5069547;28;19948;-77
2024/02/20 09:47:06;;;;;;;;;;;;;;;;;;5051828;28;20250;-77
2024/02/20 09:49:31;;;;;;;;;;;;;;;;;;5069418;28;19923;-77
2024/02/20 09:51:58;;;;;;;;;;;;;;;;;;5068924;28;19951;-78
2024/02/20 09:54:26;;;;;;;;;;;;;;;;;;5070586;28;19917;-77
2024/02/20 09:56:51;;;;;;;;;;;;;;;;;;5069213;28;19919;-78
2024/02/20 09:59:16;;;;;;;;;;;;;;;;;;5068283;28;20007;-77
2024/02/20 10:01:42;;;;;;;;;;;;;;;;;;5068421;28;20381;-78
2024/02/20 10:04:07;;;;;;;;;;;;;;;;;;5069897;28;19913;-77
2024/02/20 10:06:32;;;;;;;;;;;;;;;;;;5070245;28;19918;-75
2024/02/20 10:09:00;;;;;;;;;;;;;;;;;;5073341;28;20376;-78
2024/02/20 10:11:42;;;;;;;;;;;;;;;;;;5057430;28;19923;-78
2024/02/20 10:16:53;;;;;;;;;;;;;;;;;;5057386;28;20292;-75
2024/02/20 10:19:21;;;;;;;;;;;;;;;;;;5067686;28;19935;-75
2024/02/20 10:21:49;;;;;;;;;;;;;;;;;;5073061;28;20372;-74
2024/02/20 10:24:15;;;;;;;;;;;;;;;;;;5071261;28;19973;-75
2024/02/20 10:26:40;;;;;;;;;;;;;;;;;;5070596;28;19999;-76
2024/02/20 10:29:24;;;;;;;;;;;;;;;;;;5069858;28;19931;-76
2024/02/20 10:32:00;;;;;;;;;;;;;;;;;;;;;
2024/02/20 10:34:25;;;;;;;;;;;;;;;;;;5063643;28;19927;-75
2024/02/20 10:36:51;;;;;;;;;;;;;;;;;;5067830;28;20003;-77
2024/02/20 10:39:19;;;;;;;;;;;;;;;;;;5068756;28;19962;-77
2024/02/20 10:41:44;;;;;;;;;;;;;;;;;;5071216;28;19920;-76
2024/02/20 10:44:13;;;;;;;;;;;;;;;;;;5070564;28;20364;-77
2024/02/20 10:46:39;;;;;;;;;;;;;;;;;;5066605;28;20026;-77
2024/02/20 10:49:04;;;;;;;;;;;;;;;;;;5068089;28;19924;-75
2024/02/20 10:51:29;;;;;;;;;;;;;;;;;;5066342;28;19917;-77
2024/02/20 10:53:55;;;;;;;;;;;;;;;;;;5066826;28;19924;-76
2024/02/20 10:56:54;;;;;;;;;;;;;;;;;;5069634;28;20065;-76
2024/02/20 10:59:13;;;;;;;;;;;;;;;;;;5065030;28;20368;-77
2024/02/20 11:01:39;;;;;;;;;;;;;;;;;;5052635;28;20264;-77
2024/02/20 11:04:04;;;;;;;;;;;;;;;;;;5051774;28;20285;-76
2024/02/20 11:06:29;;;;;;;;;;;;;;;;;;5069495;28;19920;-76
2024/02/20 11:08:54;;;;;;;;;;;;;;;;;;5068892;28;20372;-76
2024/02/20 11:11:20;;;;;;;;;;;;;;;;;;5051244;28;20292;-77
2024/02/20 11:13:45;;;;;;;;;;;;;;;;;;5049105;28;19927;-77
2024/02/20 11:16:11;;;;;;;;;;;;;;;;;;5076787;28;20022;-77
2024/02/20 11:18:39;;;;;;;;;;;;;;;;;;5065998;28;20011;-77
2024/02/20 11:21:07;;;;;;;;;;;;;;;;;;5067727;28;19917;-76
2024/02/20 11:23:35;;;;;;;;;;;;;;;;;;5068164;28;19917;-75
2024/02/20 11:26:01;;;;;;;;;;;;;;;;;;5066803;28;20388;-75
2024/02/20 11:28:26;;;;;;;;;;;;;;;;;;5069742;28;19966;-75
2024/02/20 11:30:51;;;;;;;;;;;;;;;;;;5070224;28;20335;-75
2024/02/20 11:33:18;;;;;;;;;;;;;;;;;;5054326;28;19912;-75
2024/02/20 11:35:45;;;;;;;;;;;;;;;;;;5071891;28;19944;-76
2024/02/20 11:38:12;;;;;;;;;;;;;;;;;;5054530;28;19913;-76
2024/02/20 11:43:27;;;;;;;;;;;;;;;;;;5069837;28;19978;-76
2024/02/20 11:45:53;;;;;;;;;;;;;;;;;;5070483;28;20022;-77
2024/02/20 11:48:20;;;;;;;;;;;;;;;;;;5072495;28;19927;-77
2024/02/20 11:50:46;;;;;;;;;;;;;;;;;;5072781;28;20300;-77
2024/02/20 11:53:11;;;;;;;;;;;;;;;;;;5071317;28;19913;-80
2024/02/20 11:55:37;;;;;;;;;;;;;;;;;;5072938;28;19920;-79
2024/02/20 11:58:02;;;;;;;;;;;;;;;;;;5058063;28;19916;-79
2024/02/20 12:00:28;;;;;;;;;;;;;;;;;;5072276;28;20407;-78
2024/02/20 12:02:55;;;;;;;;;;;;;;;;;;5072278;28;20139;-79
2024/02/20 12:05:21;;;;;;;;;;;;;;;;;;5054285;28;20291;-76
2024/02/20 12:07:47;;;;;;;;;;;;;;;;;;5081967;28;20446;-77
2024/02/20 12:10:12;;;;;;;;;;;;;;;;;;5072399;28;20409;-75
2024/02/20 12:12:37;;;;;;;;;;;;;;;;;;5056550;28;19917;-75
2024/02/20 12:15:03;;;;;;;;;;;;;;;;;;5071329;28;19917;-75
2024/02/20 12:17:28;;;;;;;;;;;;;;;;;;5070860;28;19958;-76
2024/02/20 12:19:53;;;;;;;;;;;;;;;;;;5071093;28;19916;-75
2024/02/20 12:22:21;;;;;;;;;;;;;;;;;;5071041;28;20289;-77
2024/02/20 12:24:46;;;;;;;;;;;;;;;;;;5071222;28;19917;-77
2024/02/20 12:27:11;;;;;;;;;;;;;;;;;;5076172;28;19912;-76
2024/02/20 12:29:37;;;;;;;;;;;;;;;;;;5074687;28;19967;-76
2024/02/20 12:32:05;;;;;;;;;;;;;;;;;;5071599;28;19946;-74
2024/02/20 12:34:31;;;;;;;;;;;;;;;;;;5075357;28;19960;-75
2024/02/20 12:36:56;;;;;;;;;;;;;;;;;;5070002;28;19955;-74
2024/02/20 12:39:25;;;;;;;;;;;;;;;;;;5076661;28;19923;-75
2024/02/20 12:41:50;;;;;;;;;;;;;;;;;;5070382;28;20380;-75
2024/02/20 12:44:16;;;;;;;;;;;;;;;;;;5070146;28;19912;-75
2024/02/20 12:46:41;;;;;;;;;;;;;;;;;;5063330;28;20384;-75
2024/02/20 12:49:08;;;;;;;;;;;;;;;;;;5076306;28;19946;-76
2024/02/20 12:51:33;;;;;;;;;;;;;;;;;;5072759;28;19919;-76
2024/02/20 12:53:58;;;;;;;;;;;;;;;;;;5066820;28;20003;-76
2024/02/20 12:56:23;;;;;;;;;;;;;;;;;;5069731;28;19920;-76
2024/02/20 12:58:48;;;;;;;;;;;;;;;;;;5070114;28;19912;-76
2024/02/20 13:01:14;;;;;;;;;;;;;;;;;;5066176;28;19913;-74
2024/02/20 13:03:39;;;;;;;;;;;;;;;;;;5069796;28;20337;-75
2024/02/20 13:06:06;;;;;;;;;;;;;;;;;;5069948;28;19912;-75
2024/02/20 13:08:31;;;;;;;;;;;;;;;;;;5070034;28;19916;-76
2024/02/20 13:10:56;;;;;;;;;;;;;;;;;;5069403;28;19913;-77
2024/02/20 13:13:21;;;;;;;;;;;;;;;;;;5071133;28;19967;-76
2024/02/20 13:15:46;;;;;;;;;;;;;;;;;;5068608;28;19920;-76
2024/02/20 13:18:11;;;;;;;;;;;;;;;;;;5069602;28;19920;-75
2024/02/20 13:20:36;;;;;;;;;;;;;;;;;;5051897;28;19959;-75
2024/02/20 13:23:02;;;;;;;;;;;;;;;;;;5067253;28;19920;-76
2024/02/20 13:25:27;;;;;;;;;;;;;;;;;;5069667;28;20455;-75
2024/02/20 13:27:52;;;;;;;;;;;;;;;;;;5069708;28;20402;-75
2024/02/20 13:30:17;;;;;;;;;;;;;;;;;;5069153;28;20552;-75
2024/02/20 13:32:44;;;;;;;;;;;;;;;;;;5070924;28;19966;-76
2024/02/20 13:35:11;;;;;;;;;;;;;;;;;;5069112;28;19947;-75
2024/02/20 13:37:36;;;;;;;;;;;;;;;;;;5070615;28;19950;-77
2024/02/20 13:40:03;;;;;;;;;;;;;;;;;;5071371;28;19956;-76
2024/02/20 13:42:28;;;;;;;;;;;;;;;;;;5048568;28;19946;-76
2024/02/20 13:44:53;;;;;;;;;;;;;;;;;;5047779;28;19917;-77
2024/02/20 13:47:18;;;;;;;;;;;;;;;;;;5048537;28;20004;-77
2024/02/20 13:49:43;;;;;;;;;;;;;;;;;;5048704;28;19916;-76
2024/02/20 13:52:09;;;;;;;;;;;;;;;;;;5049772;28;20382;-75
2024/02/20 13:54:34;;;;;;;;;;;;;;;;;;5050593;28;19917;-76
2024/02/20 13:56:59;;;;;;;;;;;;;;;;;;5046023;28;19909;-75
2024/02/20 13:59:24;;;;;;;;;;;;;;;;;;5051274;28;20016;-79
2024/02/20 14:01:49;;;;;;;;;;;;;;;;;;5049414;28;19908;-79
2024/02/20 14:04:14;;;;;;;;;;;;;;;;;;5049476;28;20327;-79
2024/02/20 14:06:40;;;;;;;;;;;;;;;;;;5048239;28;19917;-79
2024/02/20 14:09:08;;;;;;;;;;;;;;;;;;5049363;28;19913;-78
2024/02/20 14:11:34;;;;;;;;;;;;;;;;;;5050284;28;20020;-78
2024/02/20 14:13:59;;;;;;;;;;;;;;;;;;5049560;28;20440;-79
2024/02/20 14:16:24;;;;;;;;;;;;;;;;;;5048614;28;20296;-79
2024/02/20 14:18:49;;;;;;;;;;;;;;;;;;5047848;28;20036;-78
2024/02/20 14:21:14;;;;;;;;;;;;;;;;;;5049111;28;19916;-77
2024/02/20 14:23:39;;;;;;;;;;;;;;;;;;5047552;28;19909;-76
2024/02/20 14:26:04;;;;;;;;;;;;;;;;;;5050366;28;20335;-78
2024/02/20 14:28:30;;;;;;;;;;;;;;;;;;5049061;28;19935;-80
2024/02/20 14:30:55;;;;;;;;;;;;;;;;;;5050156;28;19948;-79
2024/02/20 14:33:20;;;;;;;;;;;;;;;;;;5049358;28;19966;-78
2024/02/20 14:35:45;;;;;;;;;;;;;;;;;;5048638;28;19913;-79
2024/02/20 14:38:12;;;;;;;;;;;;;;;;;;5049210;28;19940;-79
2024/02/20 14:40:37;;;;;;;;;;;;;;;;;;5049389;28;19917;-78
2024/02/20 14:43:03;;;;;;;;;;;;;;;;;;5068492;28;19966;-77
2024/02/20 14:45:29;;;;;;;;;;;;;;;;;;5069017;28;19969;-79
2024/02/20 14:47:54;;;;;;;;;;;;;;;;;;5068534;28;19929;-79
2024/02/20 14:50:19;;;;;;;;;;;;;;;;;;5050669;28;19923;-80
2024/02/20 14:52:45;;;;;;;;;;;;;;;;;;5068651;28;19944;-79
2024/02/20 14:55:13;;;;;;;;;;;;;;;;;;5068590;28;19912;-78
2024/02/20 14:57:39;;;;;;;;;;;;;;;;;;5070472;28;19918;-79
2024/02/20 15:00:05;;;;;;;;;;;;;;;;;;5049723;28;19913;-79
2024/02/20 15:02:30;;;;;;;;;;;;;;;;;;5061618;28;19912;-78
2024/02/20 15:04:55;;;;;;;;;;;;;;;;;;5069468;28;20666;-79
2024/02/20 15:07:20;;;;;;;;;;;;;;;;;;5068867;28;19985;-79
2024/02/20 15:09:46;;;;;;;;;;;;;;;;;;5072128;28;19927;-76
2024/02/20 15:12:11;;;;;;;;;;;;;;;;;;5069231;28;19913;-77
2024/02/20 15:14:37;;;;;;;;;;;;;;;;;;5071809;28;19927;-76
2024/02/20 15:17:03;;;;;;;;;;;;;;;;;;5072669;28;19936;-76
2024/02/20 15:19:28;;;;;;;;;;;;;;;;;;5071831;28;19917;-77
2024/02/20 15:21:56;;;;;;;;;;;;;;;;;;5079255;28;19951;-78
2024/02/20 15:24:21;;;;;;;;;;;;;;;;;;5072502;28;19923;-76
2024/02/20 15:26:46;;;;;;;;;;;;;;;;;;5071204;28;19916;-75
2024/02/20 15:29:11;;;;;;;;;;;;;;;;;;5074391;28;19924;-76
2024/02/20 15:31:36;;;;;;;;;;;;;;;;;;5072662;28;19912;-76
2024/02/20 15:34:03;;;;;;;;;;;;;;;;;;5071418;28;19962;-76
2024/02/20 15:36:28;;;;;;;;;;;;;;;;;;5071292;28;19958;-75
2024/02/20 15:38:53;;;;;;;;;;;;;;;;;;5073452;28;19920;-76
2024/02/20 15:41:18;;;;;;;;;;;;;;;;;;5071430;28;20346;-76
2024/02/20 15:43:44;;;;;;;;;;;;;;;;;;5069192;28;19913;-76
2024/02/20 15:46:09;;;;;;;;;;;;;;;;;;5071768;28;19908;-75
2024/02/20 15:48:34;;;;;;;;;;;;;;;;;;5071454;28;19921;-76
2024/02/20 15:50:59;;;;;;;;;;;;;;;;;;5072318;28;20387;-75
2024/02/20 15:53:26;;;;;;;;;;;;;;;;;;5069653;28;20364;-75
2024/02/20 15:55:51;;;;;;;;;;;;;;;;;;5072740;28;19965;-75
2024/02/20 15:58:22;;;;;;;;;;;;;;;;;;5070925;28;20331;-76
2024/02/20 16:00:47;;;;;;;;;;;;;;;;;;5074063;28;20003;-76
2024/02/20 16:03:12;;;;;;;;;;;;;;;;;;5066583;28;20007;-74
2024/02/20 16:05:38;;;;;;;;;;;;;;;;;;5068570;28;19924;-75
2024/02/20 16:08:05;;;;;;;;;;;;;;;;;;5071384;28;20491;-75
2024/02/20 16:10:31;;;;;;;;;;;;;;;;;;5070916;28;19924;-75
2024/02/20 16:12:56;;;;;;;;;;;;;;;;;;5070625;28;19917;-75
2024/02/20 16:15:22;;;;;;;;;;;;;;;;;;5070810;28;19928;-75
2024/02/20 16:17:48;;;;;;;;;;;;;;;;;;5071018;28;19995;-74
2024/02/20 16:20:13;;;;;;;;;;;;;;;;;;5072213;28;20066;-74
2024/02/20 16:22:38;;;;;;;;;;;;;;;;;;5070918;28;19908;-74
2024/02/20 16:25:07;;;;;;;;;;;;;;;;;;5070481;28;19923;-74
2024/02/20 16:27:32;;;;;;;;;;;;;;;;;;5070062;28;19999;-75
2024/02/20 16:29:59;;;;;;;;;;;;;;;;;;5069717;28;20043;-74
2024/02/20 16:32:24;;;;;;;;;;;;;;;;;;5070551;28;20007;-74
2024/02/20 16:34:49;;;;;;;;;;;;;;;;;;5070039;28;20042;-75
2024/02/20 16:37:14;;;;;;;;;;;;;;;;;;5070324;28;19913;-74
2024/02/20 16:39:39;;;;;;;;;;;;;;;;;;5069833;28;19912;-74
2024/02/20 16:42:05;;;;;;;;;;;;;;;;;;5070646;28;19928;-74
2024/02/20 16:44:30;;;;;;;;;;;;;;;;;;5070644;28;19948;-75